Time;durP1;ratioP1;P1;durP2;ratioP2;P2;SDS_P1;SDS_P2;PMS_P1;PMS_P2;Temp;Humidity;BMP_temperature;BMP_pressure;BME280_temperature;BME280_humidity;BME280_pressure;Samples;Min_cycle;Max_cycle;Signal;HPM_P1;HPM_P2
2022/12/11 00:02:27;;;;;;;6.78;2.92;;;;;;;13.66;72.56;95398.41;10208698;28;20126;-57
2022/12/11 00:07:26;;;;;;;6.30;2.88;;;;;;;13.78;72.28;95391.72;10208532;28;20110;-57
2022/12/11 00:12:25;;;;;;;7.43;2.90;;;;;;;13.80;71.90;95395.09;10208841;28;20027;-57
2022/12/11 00:17:24;;;;;;;12.15;4.47;;;;;;;13.92;71.36;95404.03;10207497;28;20514;-58
2022/12/11 00:22:23;;;;;;;8.10;4.65;;;;;;;13.95;70.72;95407.31;10223314;28;20559;-58
2022/12/11 00:27:22;;;;;;;10.15;5.63;;;;;;;13.81;71.03;95391.53;10207350;28;20113;-58
2022/12/11 00:32:21;;;;;;;8.73;3.30;;;;;;;13.65;71.78;95375.00;10207208;28;20129;-58
2022/12/11 00:37:20;;;;;;;;;;;;;;;13.74;72.16;95364.13;10207647;28;20134;-59
2022/12/11 00:42:18;;;;;;;7.53;2.78;;;;;;;13.77;71.75;95369.16;10207553;28;20356;-58
2022/12/11 00:47:17;;;;;;;9.85;2.58;;;;;;;13.83;71.81;95384.50;10206889;28;20392;-58
2022/12/11 00:52:16;;;;;;;8.45;2.67;;;;;;;13.87;71.98;95383.41;10206690;28;20109;-58
2022/12/11 00:57:15;;;;;;;6.93;2.30;;;;;;;13.95;71.25;95378.63;10207207;28;20034;-56
2022/12/11 01:02:14;;;;;;;5.78;2.40;;;;;;;14.04;71.03;95361.66;10206177;28;20042;-57
2022/12/11 01:07:13;;;;;;;7.32;2.80;;;;;;;14.03;70.93;95359.13;10220972;28;20123;-56
2022/12/11 01:12:12;;;;;;;6.85;2.60;;;;;;;14.12;71.02;95377.72;10206578;28;20117;-57
2022/12/11 01:17:11;;;;;;;4.88;2.00;;;;;;;14.20;70.40;95361.69;10205769;28;20062;-57
2022/12/11 01:22:10;;;;;;;10.40;2.47;;;;;;;14.26;70.50;95355.28;10205326;28;20424;-58
2022/12/11 01:27:09;;;;;;;7.60;2.88;;;;;;;14.30;70.34;95352.44;10205819;28;20150;-58
2022/12/11 01:32:08;;;;;;;5.20;2.28;;;;;;;14.37;69.96;95361.63;10205443;28;20031;-58
2022/12/11 01:37:07;;;;;;;8.00;2.75;;;;;;;14.44;69.46;95363.91;10204480;28;20041;-57
2022/12/11 01:42:09;;;;;;;6.80;2.25;;;;;;;14.53;69.58;95381.66;10205562;28;20062;-58
2022/12/11 01:47:08;;;;;;;8.43;2.45;;;;;;;14.57;68.92;95377.97;10205073;28;20140;-58
2022/12/11 01:52:10;;;;;;;;;;;;;;;14.68;68.84;95364.31;10205411;28;20058;-58
2022/12/11 01:57:12;;;;;;;8.70;2.95;;;;;;;14.69;68.66;95359.00;10205381;28;19956;-58
2022/12/11 02:02:19;;;;;;;5.50;2.28;;;;;;;14.76;68.15;95359.53;10203778;28;20125;-58
2022/12/11 02:07:18;;;;;;;5.63;2.42;;;;;;;14.81;67.34;95355.75;10204606;28;20062;-57
2022/12/11 02:12:40;;;;;;;6.93;2.58;;;;;;;14.82;67.56;95380.91;10204813;28;20073;-58
2022/12/11 02:18:06;;;;;;;8.30;2.60;;;;;;;14.88;67.22;95379.75;10203919;28;20081;-58
2022/12/11 02:23:27;;;;;;;6.40;2.38;;;;;;;14.92;67.30;95365.59;10204128;28;20118;-57
2022/12/11 02:28:32;;;;;;;4.85;2.20;;;;;;;14.92;67.28;95367.34;10203681;28;20122;-57
2022/12/11 02:34:01;;;;;;;7.80;2.90;;;;;;;14.91;69.87;95407.44;10205031;28;20150;-58
2022/12/11 02:39:02;;;;;;;5.97;2.80;;;;;;;14.85;71.30;95398.19;10202194;28;20126;-58
2022/12/11 02:44:02;;;;;;;7.93;2.78;;;;;;;14.74;72.16;95383.13;10203703;28;20085;-58
2022/12/11 02:49:05;;;;;;;5.22;2.38;;;;;;;14.61;71.70;95382.91;10204400;28;20078;-58
2022/12/11 02:54:09;;;;;;;7.70;2.67;;;;;;;14.57;69.97;95376.19;10211189;28;20472;-58
2022/12/11 02:59:14;;;;;;;3.80;2.20;;;;;;;14.61;69.64;95377.69;10210497;28;20492;-57
2022/12/11 03:04:13;;;;;;;6.53;2.60;;;;;;;14.56;69.29;95365.81;10211679;28;20078;-57
2022/12/11 03:09:12;;;;;;;5.63;2.83;;;;;;;14.49;69.19;95388.81;10211293;28;20070;-57
2022/12/11 03:14:12;;;;;;;;;;;;;;;14.45;69.65;95402.09;10209931;28;20031;-57
2022/12/11 03:19:27;;;;;;;4.43;1.70;;;;;;;14.39;68.27;95439.81;10210113;28;20021;-57
2022/12/11 03:24:33;;;;;;;4.97;2.13;;;;;;;14.56;67.19;95423.25;10210546;28;20119;-57
2022/12/11 03:29:39;;;;;;;6.88;4.40;;;;;;;14.76;67.09;95424.81;10209381;28;20062;-58
2022/12/11 03:34:55;;;;;;;2.13;1.42;;;;;;;14.72;65.84;95442.41;10209868;28;20062;-58
2022/12/11 03:40:01;;;;;;;2.70;1.70;;;;;;;14.75;65.44;95405.66;10209570;28;20469;-58
2022/12/11 03:45:03;;;;;;;2.35;1.40;;;;;;;14.79;65.02;95394.13;10209302;28;20069;-58
2022/12/11 03:50:07;;;;;;;3.17;1.40;;;;;;;14.66;65.11;95387.03;10208784;28;20053;-58
2022/12/11 03:55:07;;;;;;;2.47;1.48;;;;;;;14.61;64.87;95413.38;10209550;28;20066;-58
2022/12/11 04:00:10;;;;;;;3.72;2.00;;;;;;;14.50;65.06;95442.69;10208089;28;20564;-58
2022/12/11 04:05:10;;;;;;;4.43;1.42;;;;;;;14.39;65.17;95451.09;10208322;28;20173;-58
2022/12/11 04:10:09;;;;;;;3.38;1.88;;;;;;;14.37;65.04;95455.53;10208789;28;20058;-58
2022/12/11 04:15:08;;;;;;;;;;;;;;;14.38;65.19;95454.63;10208733;28;20113;-58
2022/12/11 04:25:24;;;;;;;2.70;1.48;;;;;;;14.46;63.94;95419.47;10208597;28;20465;-58
2022/12/11 04:30:24;;;;;;;;;;;;;;;14.43;64.28;95414.38;10208503;28;20517;-58
2022/12/11 04:35:23;;;;;;;8.55;3.83;;;;;;;14.31;64.90;95421.09;10207272;28;20400;-58
2022/12/11 04:40:22;;;;;;;7.13;3.90;;;;;;;14.26;64.94;95413.50;10207168;28;20538;-58
2022/12/11 04:45:21;;;;;;;4.88;3.03;;;;;;;14.19;64.23;95423.47;10207487;28;20107;-58
2022/12/11 04:50:20;;;;;;;6.80;2.72;;;;;;;14.19;63.92;95454.75;10207658;28;20089;-58
2022/12/11 04:55:19;;;;;;;10.18;4.05;;;;;;;14.07;64.94;95480.63;10206678;28;20029;-58
2022/12/11 05:00:18;;;;;;;3.00;1.70;;;;;;;13.82;65.59;95471.44;10206199;28;20659;-58
2022/12/11 05:05:17;;;;;;;2.67;1.98;;;;;;;13.97;65.44;95486.28;10206018;28;20121;-58
2022/12/11 05:10:16;;;;;;;7.88;2.70;;;;;;;13.94;65.44;95494.28;10206223;28;20029;-58
2022/12/11 05:15:15;;;;;;;3.35;1.83;;;;;;;13.85;65.91;95491.31;10205374;28;20031;-58
2022/12/11 05:20:14;;;;;;;4.18;1.95;;;;;;;13.66;67.06;95507.03;10205772;28;20110;-58
2022/12/11 05:25:13;;;;;;;6.50;2.70;;;;;;;13.60;67.11;95528.16;10220505;28;20622;-58
2022/12/11 05:30:12;;;;;;;4.07;2.40;;;;;;;13.53;67.11;95528.41;10205141;28;20486;-58
2022/12/11 05:35:11;;;;;;;4.18;2.50;;;;;;;13.46;67.17;95511.38;10206460;28;20054;-58
2022/12/11 05:40:14;;;;;;;4.43;2.83;;;;;;;13.49;66.90;95513.00;10204566;28;20029;-58
2022/12/11 05:45:13;;;;;;;6.85;4.32;;;;;;;13.48;67.10;95521.75;10205417;28;20073;-58
2022/12/11 05:50:12;;;;;;;;;;;;;;;13.34;67.71;95518.03;10205860;28;20077;-58
2022/12/11 05:55:10;;;;;;;6.35;3.40;;;;;;;13.14;68.02;95521.59;10204398;28;19992;-58
2022/12/11 06:00:11;;;;;;;5.90;3.50;;;;;;;13.03;68.42;95526.47;10204718;28;20531;-58
2022/12/11 06:05:10;;;;;;;8.02;4.55;;;;;;;12.98;68.20;95519.75;10202841;28;20097;-58
2022/12/11 06:10:09;;;;;;;7.68;5.43;;;;;;;12.97;68.55;95529.34;10201397;28;20110;-58
2022/12/11 06:15:08;;;;;;;15.52;7.65;;;;;;;12.85;68.91;95546.34;10201077;28;20042;-58
2022/12/11 06:20:07;;;;;;;;;;;;;;;12.81;69.04;95551.78;10202966;28;20284;-58
2022/12/11 06:25:07;;;;;;;13.48;8.40;;;;;;;12.70;69.95;95558.31;10208276;28;20372;-58
2022/12/11 06:30:06;;;;;;;20.23;12.25;;;;;;;12.60;70.21;95571.78;10213120;28;20121;-58
2022/12/11 06:35:06;;;;;;;22.55;13.25;;;;;;;12.51;70.50;95568.69;10211759;28;20077;-58
2022/12/11 06:40:05;;;;;;;;;;;;;;;12.64;70.07;95574.19;10212349;28;20130;-57
2022/12/11 06:45:05;;;;;;;14.05;10.32;;;;;;;12.80;68.87;95576.97;10212830;28;19957;-58
2022/12/11 06:50:22;;;;;;;13.32;8.30;;;;;;;12.90;68.45;95582.59;10211034;28;20069;-59
2022/12/11 06:55:22;;;;;;;10.82;5.63;;;;;;;13.23;67.33;95592.38;10211418;28;20097;-57
2022/12/11 07:00:21;;;;;;;11.73;7.82;;;;;;;13.44;66.94;95593.97;10211593;28;20070;-57
2022/12/11 07:05:19;;;;;;;12.75;7.53;;;;;;;13.45;66.57;95577.44;10210925;28;20050;-57
2022/12/11 07:10:19;;;;;;;12.75;8.48;;;;;;;13.64;66.37;95571.41;10211014;28;20035;-57
2022/12/11 07:15:18;;;;;;;14.18;7.28;;;;;;;13.66;66.44;95573.00;10210694;28;20065;-57
2022/12/11 07:20:17;;;;;;;20.50;13.63;;;;;;;13.65;67.11;95586.09;10209788;28;20043;-57
2022/12/11 07:25:16;;;;;;;16.92;11.38;;;;;;;13.55;67.43;95583.94;10210697;28;20110;-57
2022/12/11 07:30:15;;;;;;;24.48;16.33;;;;;;;13.50;67.83;95565.03;10209717;28;20062;-57
2022/12/11 07:35:14;;;;;;;49.53;28.08;;;;;;;13.48;67.43;95572.09;10209579;28;20035;-57
2022/12/11 07:40:13;;;;;;;34.28;19.45;;;;;;;13.59;67.87;95608.09;10209323;28;20416;-57
2022/12/11 07:45:12;;;;;;;21.33;14.85;;;;;;;13.62;67.34;95612.31;10208992;28;20062;-57
2022/12/11 07:50:11;;;;;;;;;;;;;;;13.67;67.24;95620.75;10210417;28;20054;-57
2022/12/11 07:55:10;;;;;;;32.17;21.70;;;;;;;13.66;67.39;95630.34;10210293;28;19920;-57
2022/12/11 08:00:10;;;;;;;29.95;19.85;;;;;;;13.79;67.15;95659.28;10211358;28;20073;-58
2022/12/11 08:05:09;;;;;;;26.55;18.10;;;;;;;13.93;67.15;95646.41;10210281;28;20139;-58
2022/12/11 08:10:08;;;;;;;32.50;23.75;;;;;;;14.03;66.19;95651.19;10210466;28;20078;-59
2022/12/11 08:15:08;;;;;;;38.92;22.00;;;;;;;14.33;66.96;95648.84;10211035;28;20077;-58
2022/12/11 08:20:07;;;;;;;47.90;33.60;;;;;;;14.41;64.83;95651.94;10210486;28;20481;-58
2022/12/11 08:25:07;;;;;;;35.10;22.73;;;;;;;14.60;65.57;95644.84;10210110;28;20058;-58
2022/12/11 08:30:06;;;;;;;31.13;22.35;;;;;;;14.73;65.43;95632.06;10210118;28;20066;-58
2022/12/11 08:35:06;;;;;;;39.63;31.52;;;;;;;14.88;64.61;95629.59;10210332;28;20069;-57
2022/12/11 08:40:05;;;;;;;45.10;31.20;;;;;;;15.10;65.15;95630.13;10209770;28;20081;-57
2022/12/11 08:45:05;;;;;;;32.60;23.83;;;;;;;15.25;64.92;95624.09;10209130;28;20085;-58
2022/12/11 08:50:04;;;;;;;34.03;25.85;;;;;;;15.33;64.27;95620.22;10209774;28;20070;-58
2022/12/11 08:55:04;;;;;;;38.58;28.90;;;;;;;15.36;64.80;95631.34;10209265;28;20150;-58
2022/12/11 09:00:03;;;;;;;29.27;22.02;;;;;;;15.42;65.08;95635.41;10208875;28;20125;-58
2022/12/11 09:05:06;;;;;;;30.10;21.50;;;;;;;15.43;64.00;95629.25;10208899;28;20105;-58
2022/12/11 09:10:06;;;;;;;28.20;20.67;;;;;;;15.36;64.18;95630.50;10209784;28;20078;-58
2022/12/11 09:15:06;;;;;;;17.95;11.93;;;;;;;15.41;63.45;95633.69;10208910;28;20058;-58
2022/12/11 09:20:05;;;;;;;24.95;13.85;;;;;;;15.46;62.85;95636.94;10208567;28;20065;-58
2022/12/11 09:25:05;;;;;;;34.80;21.88;;;;;;;15.54;62.19;95633.91;10209126;28;20089;-58
2022/12/11 09:30:05;;;;;;;101.80;54.67;;;;;;;15.63;61.48;95634.22;10208754;28;20070;-58
2022/12/11 09:35:04;;;;;;;40.20;23.05;;;;;;;15.66;60.36;95627.97;10203146;28;20102;-58
2022/12/11 09:40:04;;;;;;;109.85;64.43;;;;;;;15.73;60.40;95628.50;10202925;28;20157;-58
2022/12/11 09:45:05;;;;;;;23.95;14.13;;;;;;;15.81;59.44;95615.84;10197232;28;20417;-58
2022/12/11 09:50:22;;;;;;;14.90;8.18;;;;;;;15.65;60.78;95623.69;10199546;28;20070;-58
2022/12/11 09:55:24;;;;;;;10.23;5.20;;;;;;;14.98;64.19;95620.34;10206192;28;20070;-58
2022/12/11 10:00:44;;;;;;;13.02;9.48;;;;;;;14.43;66.84;95636.19;10205925;28;20126;-58
2022/12/11 10:05:53;;;;;;;8.60;4.93;;;;;;;14.01;67.41;95637.38;10207255;28;20464;-58
2022/12/11 10:11:00;;;;;;;12.03;8.13;;;;;;;13.34;69.20;95647.44;10204368;28;20077;-58
2022/12/11 10:16:11;;;;;;;10.18;6.70;;;;;;;12.68;71.25;95669.44;10196646;28;20138;-58
2022/12/11 10:21:13;;;;;;;14.35;10.02;;;;;;;12.11;73.14;95686.53;10202671;28;20130;-58
2022/12/11 10:26:17;;;;;;;11.38;8.35;;;;;;;11.53;76.17;95709.59;10204633;28;20105;-58
2022/12/11 10:31:40;;;;;;;10.88;8.38;;;;;;;10.77;81.29;95695.81;10206353;28;20206;-58
2022/12/11 10:36:41;;;;;;;12.95;8.43;;;;;;;10.08;85.77;95721.47;10203972;28;20114;-59
2022/12/11 10:41:42;;;;;;;17.35;12.55;;;;;;;9.42;91.76;95742.44;10206097;28;20509;-59
2022/12/11 10:46:42;;;;;;;20.75;13.13;;;;;;;8.84;98.18;95746.59;10206171;28;20054;-61
2022/12/11 10:51:40;;;;;;;;;;;;;;;8.40;100.00;95775.25;10206818;28;20054;-59
2022/12/11 10:56:39;;;;;;;18.88;14.23;;;;;;;8.26;100.00;95751.50;10204931;28;19922;-59
2022/12/11 11:01:39;;;;;;;22.67;15.48;;;;;;;8.17;100.00;95769.78;10204991;28;20134;-59
2022/12/11 11:06:38;;;;;;;;;;;;;;;8.07;100.00;95784.66;10204658;28;20491;-59
2022/12/11 11:11:37;;;;;;;23.10;16.15;;;;;;;8.07;100.00;95777.75;10207666;28;20299;-59
2022/12/11 11:16:38;;;;;;;30.60;20.60;;;;;;;8.15;100.00;95789.66;10212848;28;20066;-59
2022/12/11 11:21:49;;;;;;;26.10;17.50;;;;;;;8.15;100.00;95794.81;10212255;28;20122;-59
2022/12/11 11:26:48;;;;;;;28.38;20.33;;;;;;;7.86;100.00;95793.75;10212659;28;20089;-59
2022/12/11 11:31:47;;;;;;;34.85;23.05;;;;;;;7.63;100.00;95807.97;10211807;28;20058;-59
2022/12/11 11:36:56;;;;;;;31.40;19.30;;;;;;;7.38;100.00;95815.34;10211492;28;20038;-59
2022/12/11 11:42:33;;;;;;;19.70;13.25;;;;;;;7.11;100.00;95814.13;10211103;28;20129;-59
2022/12/11 11:48:01;;;;;;;40.10;27.88;;;;;;;7.23;100.00;95801.00;10202921;28;20556;-59
2022/12/11 11:53:10;;;;;;;26.05;19.02;;;;;;;7.28;100.00;95800.91;10210472;28;20118;-59
2022/12/11 11:58:24;;;;;;;19.52;13.50;;;;;;;7.24;100.00;95810.47;10210463;28;20503;-60
2022/12/11 12:03:24;;;;;;;20.90;14.45;;;;;;;7.27;100.00;95827.59;10211706;28;20598;-59
2022/12/11 12:08:47;;;;;;;32.10;19.88;;;;;;;7.18;100.00;95831.19;10208995;28;20075;-60
2022/12/11 12:13:49;;;;;;;10.98;7.72;;;;;;;6.99;100.00;95840.16;10211078;28;20050;-59
2022/12/11 12:19:13;;;;;;;21.42;14.63;;;;;;;6.71;100.00;95838.06;10209576;28;20125;-61
2022/12/11 12:25:03;;;;;;;26.40;17.75;;;;;;;6.44;100.00;95841.91;10209554;28;20130;-60
2022/12/11 12:30:11;;;;;;;15.98;10.40;;;;;;;6.25;100.00;95837.91;10187544;28;20134;-61
2022/12/11 12:35:25;;;;;;;30.45;22.10;;;;;;;6.22;100.00;95831.09;10209099;28;20504;-60
2022/12/11 12:40:36;;;;;;;37.63;28.25;;;;;;;6.07;100.00;95832.19;10210404;28;20508;-60
2022/12/11 12:45:38;;;;;;;23.88;18.63;;;;;;;6.14;100.00;95848.38;10208510;28;20054;-60
2022/12/11 12:50:43;;;;;;;16.90;12.30;;;;;;;6.18;100.00;95855.19;10209369;28;21441;-60
2022/12/11 12:55:44;;;;;;;24.25;16.95;;;;;;;6.08;100.00;95859.63;10205560;28;20096;-60
2022/12/11 13:00:43;;;;;;;35.47;20.10;;;;;;;6.06;100.00;95845.06;10209588;28;20063;-60
2022/12/11 13:05:53;;;;;;;37.65;22.35;;;;;;;6.17;100.00;95858.66;10206522;28;20070;-60
2022/12/11 13:11:05;;;;;;;16.50;9.85;;;;;;;6.07;100.00;95859.63;10182331;28;20118;-60
2022/12/11 13:16:16;;;;;;;28.45;17.30;;;;;;;6.07;100.00;95857.06;10208264;28;20066;-59
2022/12/11 13:21:39;;;;;;;73.55;43.85;;;;;;;6.19;100.00;95867.22;10208404;28;20442;-59
2022/12/11 13:26:40;;;;;;;28.88;18.67;;;;;;;6.08;100.00;95879.38;10203752;28;20162;-59
2022/12/11 13:31:44;;;;;;;30.30;19.90;;;;;;;6.15;100.00;95889.56;10205900;28;20073;-59
2022/12/11 13:36:51;;;;;;;32.72;19.42;;;;;;;6.02;100.00;95889.75;10206299;28;20134;-59
2022/12/11 13:42:27;;;;;;;55.10;36.08;;;;;;;5.89;100.00;95900.22;10207003;28;20126;-59
2022/12/11 13:47:27;;;;;;;31.92;21.73;;;;;;;5.86;100.00;95902.81;10204692;28;20121;-59
2022/12/11 13:52:27;;;;;;;15.73;12.48;;;;;;;5.93;100.00;95912.19;10207655;28;20070;-59
2022/12/11 13:57:27;;;;;;;30.35;18.80;;;;;;;5.83;100.00;95912.28;10206228;28;20117;-60
2022/12/11 14:02:32;;;;;;;36.08;20.98;;;;;;;5.82;100.00;95910.59;10207206;28;20453;-60
2022/12/11 14:07:35;;;;;;;50.00;29.67;;;;;;;5.86;100.00;95909.66;10204962;28;20066;-60
2022/12/11 14:12:36;;;;;;;21.85;14.80;;;;;;;5.97;100.00;95942.13;10207260;28;20049;-60
2022/12/11 14:17:35;;;;;;;51.47;31.13;;;;;;;5.94;100.00;95941.34;10205912;28;20073;-60
2022/12/11 14:22:34;;;;;;;18.30;13.00;;;;;;;6.01;100.00;95939.53;10206908;28;20677;-60
2022/12/11 14:27:33;;;;;;;28.13;18.85;;;;;;;6.06;100.00;95956.63;10203526;28;20602;-60
2022/12/11 14:32:37;;;;;;;13.45;8.95;;;;;;;5.91;100.00;95962.81;10207215;28;20125;-60
2022/12/11 14:37:36;;;;;;;11.85;6.90;;;;;;;5.65;100.00;95983.72;10204998;28;20469;-60
2022/12/11 14:42:42;;;;;;;16.00;11.32;;;;;;;5.53;100.00;95982.09;10206574;28;20081;-61
2022/12/11 14:47:43;;;;;;;25.55;18.02;;;;;;;5.59;100.00;95988.06;10210603;28;20539;-60
2022/12/11 14:52:47;;;;;;;28.77;18.98;;;;;;;5.64;100.00;95984.56;10214860;28;20848;-61
2022/12/11 14:57:49;;;;;;;62.35;38.33;;;;;;;5.61;100.00;95994.03;10212276;28;20166;-60
2022/12/11 15:03:20;;;;;;;25.77;17.00;;;;;;;5.65;100.00;96018.84;10213622;28;20074;-59
2022/12/11 15:08:25;;;;;;;29.05;16.25;;;;;;;5.63;100.00;96018.03;10242651;28;20074;-60
2022/12/11 15:13:24;;;;;;;14.73;10.05;;;;;;;5.63;100.00;96018.03;10212585;28;20122;-60
2022/12/11 15:18:42;;;;;;;27.92;18.38;;;;;;;5.56;100.00;96027.53;10211106;28;20110;-59
2022/12/11 15:23:55;;;;;;;19.23;11.55;;;;;;;5.52;100.00;96034.41;10212218;28;20078;-59
2022/12/11 15:28:59;;;;;;;19.58;10.15;;;;;;;5.71;100.00;96023.94;10211110;28;20574;-59
2022/12/11 15:33:58;;;;;;;24.73;12.98;;;;;;;5.92;100.00;96028.03;10212214;28;20066;-59
2022/12/11 15:38:57;;;;;;;1.00;1.00;;;;;;;6.07;100.00;96032.16;10209541;28;20031;-59
2022/12/11 15:43:57;;;;;;;1.20;1.20;;;;;;;6.12;100.00;96032.97;10209361;28;20031;-59
2022/12/11 15:48:56;;;;;;;2.28;1.92;;;;;;;5.96;100.00;96020.25;10206690;28;20066;-59
2022/12/11 15:53:55;;;;;;;0.30;0.30;;;;;;;5.85;100.00;96027.25;10209166;28;20793;-59
2022/12/11 15:59:03;;;;;;;0.98;0.57;;;;;;;5.52;100.00;96049.84;10208126;28;20118;-59
2022/12/11 16:04:02;;;;;;;0.95;0.75;;;;;;;5.39;100.00;96058.56;10210740;28;20138;-59
2022/12/11 16:09:02;;;;;;;0.35;0.35;;;;;;;5.42;100.00;96067.97;10210339;28;20130;-60
2022/12/11 16:14:04;;;;;;;3.72;3.17;;;;;;;5.42;100.00;96050.81;10208706;28;20126;-60
2022/12/11 16:19:03;;;;;;;0.88;0.85;;;;;;;5.73;100.00;96058.25;10208725;28;20555;-59
2022/12/11 16:24:03;;;;;;;0.50;0.40;;;;;;;5.80;100.00;96048.75;10208510;28;20499;-59
2022/12/11 16:29:01;;;;;;;0.80;0.50;;;;;;;5.85;100.00;96049.56;10209844;28;20106;-59
2022/12/11 16:34:00;;;;;;;1.02;0.63;;;;;;;5.88;100.00;96047.81;10208660;28;20042;-60
2022/12/11 16:38:59;;;;;;;5.20;2.90;;;;;;;5.84;100.00;96042.72;10208578;28;20030;-60
2022/12/11 16:44:00;;;;;;;4.07;2.00;;;;;;;5.76;100.00;96045.34;10207620;28;20485;-59
2022/12/11 16:48:59;;;;;;;2.13;1.98;;;;;;;5.78;100.00;96045.34;10208411;28;20070;-59
2022/12/11 16:53:58;;;;;;;1.13;1.02;;;;;;;5.75;100.00;96067.66;10207588;28;20070;-59
2022/12/11 16:58:59;;;;;;;1.52;1.33;;;;;;;5.59;100.00;96070.38;10208176;28;20077;-60
2022/12/11 17:03:59;;;;;;;2.00;1.02;;;;;;;5.19;100.00;96079.25;10205925;28;20844;-59
2022/12/11 17:08:58;;;;;;;0.52;0.52;;;;;;;5.05;100.00;96088.78;10204825;28;20058;-59
2022/12/11 17:13:58;;;;;;;0.35;0.35;;;;;;;5.04;100.00;96090.50;10207439;28;20114;-60
2022/12/11 17:18:57;;;;;;;14.07;8.73;;;;;;;5.03;100.00;96101.63;10207510;28;20125;-60
2022/12/11 17:23:56;;;;;;;10.00;7.35;;;;;;;5.23;100.00;96092.97;10206866;28;20084;-59
2022/12/11 17:28:56;;;;;;;3.38;3.08;;;;;;;5.47;100.00;96100.50;10206694;28;20101;-60
2022/12/11 17:33:59;;;;;;;4.35;3.35;;;;;;;5.64;100.00;96120.09;10205634;28;20077;-59
2022/12/11 17:38:58;;;;;;;1.48;1.00;;;;;;;5.75;100.00;96105.41;10206047;28;20065;-57
2022/12/11 17:43:57;;;;;;;0.88;0.88;;;;;;;5.86;100.00;96106.19;10207222;28;20061;-57
2022/12/11 17:48:58;;;;;;;1.55;1.20;;;;;;;5.85;100.00;96107.03;10206756;28;20769;-60
2022/12/11 17:53:57;;;;;;;2.35;1.90;;;;;;;5.75;100.00;96095.13;10204690;28;20073;-59
2022/12/11 17:58:57;;;;;;;2.60;2.22;;;;;;;5.78;100.00;96089.94;10206088;28;20133;-60
2022/12/11 18:04:00;;;;;;;2.00;1.77;;;;;;;5.91;100.00;96114.72;10203764;28;20126;-59
2022/12/11 18:08:59;;;;;;;3.05;2.22;;;;;;;5.90;100.00;96115.56;10205228;28;20775;-59
2022/12/11 18:13:58;;;;;;;0.95;0.95;;;;;;;5.94;100.00;96109.53;10206562;28;20500;-59
2022/12/11 18:18:57;;;;;;;1.02;0.90;;;;;;;5.88;100.00;96111.31;10203557;28;20039;-59
2022/12/11 18:23:57;;;;;;;1.13;1.13;;;;;;;5.95;100.00;96121.56;10214433;28;20168;-59
2022/12/11 18:28:55;;;;;;;3.70;1.75;;;;;;;5.73;100.00;96123.44;10213396;28;20130;-59
2022/12/11 18:33:55;;;;;;;0.50;0.50;;;;;;;5.77;100.00;96126.84;10214263;28;20058;-59
2022/12/11 18:38:54;;;;;;;1.08;0.73;;;;;;;5.68;100.00;96138.06;10214123;28;20125;-58
2022/12/11 18:43:52;;;;;;;0.32;0.32;;;;;;;5.65;100.00;96140.69;10214324;28;20149;-59
2022/12/11 18:48:52;;;;;;;3.97;1.58;;;;;;;5.71;100.00;96142.34;10210070;28;20114;-58
2022/12/11 18:53:51;;;;;;;;;;;;;;;5.75;100.00;96150.03;10214487;28;20059;-59
2022/12/11 18:58:50;;;;;;;7.68;1.30;;;;;;;5.75;100.00;96128.59;10212892;28;19953;-59
2022/12/11 19:03:50;;;;;;;;;;;;;;;5.68;100.00;96142.38;10211669;28;20154;-58
2022/12/11 19:08:49;;;;;;;0.50;0.50;;;;;;;5.60;100.00;96141.56;10212884;28;19957;-58
2022/12/11 19:13:49;;;;;;;1.52;1.25;;;;;;;5.65;100.00;96137.22;10209139;28;20062;-59
2022/12/11 19:18:49;;;;;;;0.68;0.68;;;;;;;5.74;100.00;96148.31;10207391;28;20109;-59
2022/12/11 19:23:48;;;;;;;0.75;0.73;;;;;;;5.77;100.00;96150.03;10211790;28;20481;-59
2022/12/11 19:28:50;;;;;;;0.35;0.35;;;;;;;5.86;100.00;96157.66;10207510;28;20493;-60
2022/12/11 19:33:49;;;;;;;0.68;0.65;;;;;;;5.97;100.00;96163.56;10208677;28;20540;-60
2022/12/11 19:38:48;;;;;;;;;;;;;;;6.06;100.00;96177.22;10208064;28;20205;-60
2022/12/11 19:43:48;;;;;;;0.40;0.40;;;;;;;6.07;100.00;96173.78;10209411;28;19921;-59
2022/12/11 19:48:48;;;;;;;0.30;0.30;;;;;;;6.08;100.00;96165.19;10208256;28;20109;-60
2022/12/11 19:53:48;;;;;;;0.32;0.32;;;;;;;6.04;100.00;96178.97;10208157;28;20100;-60
2022/12/11 19:58:48;;;;;;;0.35;0.30;;;;;;;5.94;100.00;96186.75;10204884;28;20141;-59
2022/12/11 20:03:48;;;;;;;0.43;0.43;;;;;;;5.94;100.00;96197.06;10210015;28;20129;-59
2022/12/11 20:08:47;;;;;;;12.02;6.78;;;;;;;5.77;100.00;96198.94;10208221;28;20126;-59
2022/12/11 20:13:47;;;;;;;6.13;4.82;;;;;;;5.75;100.00;96210.94;10206747;28;20117;-59
2022/12/11 20:18:47;;;;;;;8.98;2.08;;;;;;;5.83;100.00;96206.59;10209804;28;20085;-59
2022/12/11 20:23:47;;;;;;;0.55;0.55;;;;;;;5.85;100.00;96222.88;10208256;28;20134;-59
2022/12/11 20:28:48;;;;;;;;;;;;;;;5.88;100.00;96230.59;10208096;28;20134;-59
2022/12/11 20:33:49;;;;;;;0.73;0.73;;;;;;;5.84;100.00;96218.59;10205497;28;20005;-59
2022/12/11 20:38:49;;;;;;;4.50;1.75;;;;;;;5.82;100.00;96222.06;10208367;28;20066;-59
2022/12/11 20:43:48;;;;;;;4.68;1.65;;;;;;;5.76;100.00;96220.38;10204593;28;20121;-61
2022/12/11 20:48:47;;;;;;;15.75;8.70;;;;;;;5.57;100.00;96226.50;10207303;28;20125;-60
2022/12/11 20:53:49;;;;;;;5.50;3.15;;;;;;;5.40;100.00;96227.44;10208272;28;20074;-59
2022/12/11 20:58:47;;;;;;;2.58;2.40;;;;;;;5.31;100.00;96219.78;10205731;28;20161;-58
2022/12/11 21:03:47;;;;;;;1.92;1.77;;;;;;;5.18;100.00;96226.72;10210464;28;20133;-59
2022/12/11 21:08:46;;;;;;;3.35;2.90;;;;;;;5.21;100.00;96225.84;10208444;28;20608;-58
2022/12/11 21:13:45;;;;;;;1.67;1.58;;;;;;;5.12;100.00;96216.44;10208325;28;20054;-59
2022/12/11 21:18:45;;;;;;;2.20;2.00;;;;;;;5.06;100.00;96219.91;10208695;28;20641;-59
2022/12/11 21:23:44;;;;;;;2.47;1.77;;;;;;;5.04;100.00;96226.78;10207979;28;20528;-59
2022/12/11 21:28:43;;;;;;;3.30;2.55;;;;;;;5.04;100.00;96221.63;10207729;28;20861;-59
2022/12/11 21:33:42;;;;;;;6.38;1.75;;;;;;;5.05;100.00;96228.47;10207905;28;20034;-60
2022/12/11 21:38:43;;;;;;;0.13;0.13;;;;;;;5.10;100.00;96231.03;10208132;28;20121;-60
2022/12/11 21:43:44;;;;;;;1.05;1.05;;;;;;;5.13;100.00;96252.44;10208064;28;20118;-59
2022/12/11 21:48:44;;;;;;;1.70;1.60;;;;;;;5.21;100.00;96244.69;10207040;28;20066;-59
2022/12/11 21:53:44;;;;;;;0.77;0.77;;;;;;;5.26;100.00;96239.53;10206962;28;20460;-59
2022/12/11 21:58:43;;;;;;;0.63;0.63;;;;;;;5.32;100.00;96249.78;10206649;28;20118;-59
2022/12/11 22:03:43;;;;;;;0.85;0.80;;;;;;;5.30;100.00;96247.22;10206708;28;20078;-59
2022/12/11 22:08:42;;;;;;;0.40;0.40;;;;;;;5.31;100.00;96236.06;10206851;28;20489;-59
2022/12/11 22:13:41;;;;;;;0.98;0.95;;;;;;;5.31;100.00;96241.22;10206586;28;20493;-59
2022/12/11 22:18:40;;;;;;;1.27;1.27;;;;;;;5.28;100.00;96235.25;10206847;28;20390;-59
2022/12/11 22:23:40;;;;;;;2.08;1.23;;;;;;;5.28;100.00;96230.94;10206577;28;20070;-59
2022/12/11 22:28:39;;;;;;;1.10;0.98;;;;;;;5.30;100.00;96230.94;10205887;28;20066;-59
2022/12/11 22:33:38;;;;;;;2.28;2.08;;;;;;;5.28;100.00;96232.66;10206315;28;20098;-59
2022/12/11 22:38:38;;;;;;;2.45;2.15;;;;;;;5.25;100.00;96240.38;10221374;28;20061;-58
2022/12/11 22:43:37;;;;;;;2.58;1.08;;;;;;;5.14;100.00;96261.00;10205323;28;20150;-58
2022/12/11 22:48:36;;;;;;;0.85;0.75;;;;;;;4.96;100.00;96263.63;10205707;28;20129;-58
2022/12/11 22:53:35;;;;;;;1.65;1.55;;;;;;;4.84;100.00;96259.34;10206802;28;20077;-58
2022/12/11 22:58:34;;;;;;;0.57;0.57;;;;;;;4.86;100.00;96267.91;10206505;28;20070;-58
2022/12/11 23:03:33;;;;;;;1.50;0.80;;;;;;;4.83;100.00;96255.06;10205285;28;20086;-58
2022/12/11 23:08:33;;;;;;;0.10;0.10;;;;;;;4.79;100.00;96243.09;10209322;28;20042;-58
2022/12/11 23:13:32;;;;;;;0.35;0.20;;;;;;;4.71;100.00;96254.25;10212835;28;20476;-58
2022/12/11 23:18:31;;;;;;;0.52;0.52;;;;;;;4.55;100.00;96242.28;10211238;28;20457;-58
2022/12/11 23:23:30;;;;;;;1.23;1.08;;;;;;;4.50;100.00;96265.41;10225389;28;20896;-58